Time;durP1;ratioP1;P1;durP2;ratioP2;P2;SDS_P1;SDS_P2;PMS_P1;PMS_P2;Temp;Humidity;BMP_temperature;BMP_pressure;BME280_temperature;BME280_humidity;BME280_pressure;Samples;Min_cycle;Max_cycle;Signal;HPM_P1;HPM_P2
2022/09/24 00:00:39;;;;;;;;;;;14.10;99.90;;;;;;5113766;27;20313;-73
2022/09/24 00:03:04;;;;;;;;;;;14.10;99.90;;;;;;5135022;27;19911;-73
2022/09/24 00:05:35;;;;;;;;;;;14.10;99.90;;;;;;5115934;28;19918;-73
2022/09/24 00:08:01;;;;;;;;;;;14.10;99.90;;;;;;5133932;27;19919;-72
2022/09/24 00:10:26;;;;;;;;;;;14.20;99.90;;;;;;5135451;27;20320;-73
2022/09/24 00:12:52;;;;;;;;;;;14.20;99.90;;;;;;5106370;28;20365;-73
2022/09/24 00:15:17;;;;;;;;;;;14.20;99.90;;;;;;5128359;27;19959;-73
2022/09/24 00:17:43;;;;;;;;;;;14.20;99.90;;;;;;5111457;27;19969;-73
2022/09/24 00:20:08;;;;;;;;;;;14.20;99.90;;;;;;5129367;27;19972;-73
2022/09/24 00:22:34;;;;;;;;;;;14.20;99.90;;;;;;5127856;27;19916;-72
2022/09/24 00:27:43;;;;;;;;;;;14.20;99.90;;;;;;5124043;27;20031;-73
2022/09/24 00:30:09;;;;;;;;;;;14.10;99.90;;;;;;5129263;27;20252;-73
2022/09/24 00:32:35;;;;;;;;;;;14.10;99.90;;;;;;5138222;27;20244;-73
2022/09/24 00:35:00;;;;;;;;;;;14.10;99.90;;;;;;5133858;27;19999;-72
2022/09/24 00:37:27;;;;;;;;;;;14.10;99.90;;;;;;5118911;27;19921;-73
2022/09/24 00:39:52;;;;;;;;;;;14.10;99.90;;;;;;5137737;27;19915;-72
2022/09/24 00:42:18;;;;;;;;;;;14.10;99.90;;;;;;5130277;27;20272;-73
2022/09/24 00:44:44;;;;;;;;;;;14.10;99.90;;;;;;5107933;28;20199;-74
2022/09/24 00:47:12;;;;;;;;;;;14.10;99.90;;;;;;5106419;28;19915;-74
2022/09/24 00:49:39;;;;;;;;;;;14.00;99.90;;;;;;5135833;27;19917;-73
2022/09/24 00:52:05;;;;;;;;;;;14.00;99.90;;;;;;5104840;27;20354;-73
2022/09/24 00:54:31;;;;;;;;;;;14.00;99.90;;;;;;5117472;28;20003;-74
2022/09/24 00:56:58;;;;;;;;;;;14.00;99.90;;;;;;5116678;28;19914;-74
2022/09/24 00:59:24;;;;;;;;;;;13.90;99.90;;;;;;5115315;27;19918;-74
2022/09/24 01:01:50;;;;;;;;;;;14.00;99.90;;;;;;5113370;27;19916;-74
2022/09/24 01:04:19;;;;;;;;;;;13.90;99.90;;;;;;5110985;27;19924;-74
2022/09/24 01:06:46;;;;;;;;;;;13.90;99.90;;;;;;5103999;28;20101;-74
2022/09/24 01:09:12;;;;;;;;;;;14.00;99.90;;;;;;5105705;28;20355;-74
2022/09/24 01:11:46;;;;;;;;;;;13.90;99.90;;;;;;5116593;28;19990;-73
2022/09/24 01:14:22;;;;;;;;;;;13.90;99.90;;;;;;5116004;28;19912;-74
2022/09/24 01:17:12;;;;;;;;;;;13.90;99.90;;;;;;5116265;27;19912;-74
2022/09/24 01:20:00;;;;;;;;;;;13.80;99.90;;;;;;5116872;27;19943;-74
2022/09/24 01:22:44;;;;;;;;;;;13.90;99.90;;;;;;5083868;28;20004;-74
2022/09/24 01:25:24;;;;;;;;;;;13.90;99.90;;;;;;5102399;28;19916;-74
2022/09/24 01:27:51;;;;;;;;;;;13.80;99.90;;;;;;5101958;27;20310;-75
2022/09/24 01:30:17;;;;;;;;;;;13.80;99.90;;;;;;5109260;28;20366;-74
2022/09/24 01:32:56;;;;;;;;;;;13.80;99.90;;;;;;5105757;27;19947;-74
2022/09/24 01:35:27;;;;;;;;;;;13.80;99.90;;;;;;5114850;27;19911;-75
2022/09/24 01:38:05;;;;;;;;;;;13.80;99.90;;;;;;5114341;27;19954;-75
2022/09/24 01:40:31;;;;;;;;;;;13.80;99.90;;;;;;5110379;28;19916;-75
2022/09/24 01:42:58;;;;;;;;;;;13.80;99.90;;;;;;5111475;28;19965;-75
2022/09/24 01:45:28;;;;;;;;;;;13.80;99.90;;;;;;5108567;28;20006;-75
2022/09/24 01:47:54;;;;;;;;;;;13.80;99.90;;;;;;5105030;28;19920;-74
2022/09/24 01:50:20;;;;;;;;;;;13.80;99.90;;;;;;5114196;27;19995;-74
2022/09/24 01:52:52;;;;;;;;;;;13.80;99.90;;;;;;5118575;27;19961;-74
2022/09/24 01:55:20;;;;;;;;;;;13.80;99.90;;;;;;5114645;27;19960;-74
2022/09/24 01:57:48;;;;;;;;;;;13.70;99.90;;;;;;5129960;27;19927;-74
2022/09/24 02:00:15;;;;;;;;;;;13.70;99.90;;;;;;5137138;27;19911;-74
2022/09/24 02:02:56;;;;;;;;;;;13.70;99.90;;;;;;5110083;28;19916;-74
2022/09/24 02:05:40;;;;;;;;;;;13.70;99.90;;;;;;5112484;27;19918;-74
2022/09/24 02:08:07;;;;;;;;;;;13.70;99.90;;;;;;5135445;27;19922;-73
2022/09/24 02:10:36;;;;;;;;;;;13.80;99.90;;;;;;5119192;27;19908;-74
2022/09/24 02:13:04;;;;;;;;;;;13.70;99.90;;;;;;5134703;27;19912;-74
2022/09/24 02:15:37;;;;;;;;;;;13.70;99.90;;;;;;5130086;27;19911;-74
2022/09/24 02:18:06;;;;;;;;;;;13.70;99.90;;;;;;5110877;27;19924;-74
2022/09/24 02:20:33;;;;;;;;;;;13.70;99.90;;;;;;5143033;27;19916;-74
2022/09/24 02:22:59;;;;;;;;;;;13.70;99.90;;;;;;5131649;27;20306;-73
2022/09/24 02:25:54;;;;;;;;;;;13.70;99.90;;;;;;5133434;27;19919;-73
2022/09/24 02:28:20;;;;;;;;;;;13.70;99.90;;;;;;5111260;27;20567;-73
2022/09/24 02:30:48;;;;;;;;;;;13.80;99.90;;;;;;5123362;27;19916;-73
2022/09/24 02:35:59;;;;;;;;;;;13.80;99.90;;;;;;5131020;27;19942;-74
2022/09/24 02:38:24;;;;;;;;;;;13.80;99.90;;;;;;5129199;27;20302;-73
2022/09/24 02:40:51;;;;;;;;;;;13.70;99.90;;;;;;5119530;27;20580;-74
2022/09/24 02:43:16;;;;;;;;;;;13.80;99.90;;;;;;5102619;27;19912;-74
2022/09/24 02:45:42;;;;;;;;;;;13.70;99.90;;;;;;5117985;27;19912;-73
2022/09/24 02:48:08;;;;;;;;;;;13.70;99.90;;;;;;5134754;27;20222;-73
2022/09/24 02:50:33;;;;;;;;;;;13.70;99.90;;;;;;5127817;27;20011;-73
2022/09/24 02:52:59;;;;;;;;;;;13.70;99.90;;;;;;5132857;27;19922;-73
2022/09/24 02:55:24;;;;;;;;;;;13.70;99.90;;;;;;5130812;27;19915;-74
2022/09/24 02:57:50;;;;;;;;;;;13.70;99.90;;;;;;5132627;27;19916;-74
2022/09/24 03:00:16;;;;;;;;;;;13.70;99.90;;;;;;5126520;27;19934;-73
2022/09/24 03:02:42;;;;;;;;;;;13.70;99.90;;;;;;5124153;27;19916;-71
2022/09/24 03:05:08;;;;;;;;;;;13.70;99.90;;;;;;5130712;27;19922;-71
2022/09/24 03:07:33;;;;;;;;;;;13.80;99.90;;;;;;5105429;27;19959;-70
2022/09/24 03:09:59;;;;;;;;;;;13.80;99.90;;;;;;5134237;27;20269;-72
2022/09/24 03:12:24;;;;;;;;;;;13.70;99.90;;;;;;5120704;27;19955;-70
2022/09/24 03:14:50;;;;;;;;;;;13.80;99.90;;;;;;5126617;27;19939;-71
2022/09/24 03:17:15;;;;;;;;;;;13.70;99.90;;;;;;5108287;27;19916;-71
2022/09/24 03:19:41;;;;;;;;;;;13.70;99.90;;;;;;5122173;27;19911;-71
2022/09/24 03:22:06;;;;;;;;;;;13.70;99.90;;;;;;5127041;27;20329;-71
2022/09/24 03:24:32;;;;;;;;;;;13.70;99.90;;;;;;5120914;27;19919;-72
2022/09/24 03:26:57;;;;;;;;;;;13.70;99.90;;;;;;5125224;27;19911;-72
2022/09/24 03:30:58;;;;;;;;;;;13.60;99.90;;;;;;5121138;27;20023;-71
2022/09/24 03:32:08;;;;;;;;;;;13.60;99.90;;;;;;5126346;27;19915;-71
2022/09/24 03:34:34;;;;;;;;;;;13.60;99.90;;;;;;5134514;27;19907;-71
2022/09/24 03:36:59;;;;;;;;;;;13.50;99.90;;;;;;5134417;27;19911;-71
2022/09/24 03:39:25;;;;;;;;;;;13.60;99.90;;;;;;5105348;27;19915;-71
2022/09/24 03:41:50;;;;;;;;;;;13.50;99.90;;;;;;5130940;27;19922;-70
2022/09/24 03:44:16;;;;;;;;;;;13.60;99.90;;;;;;5135298;27;19915;-71
2022/09/24 03:46:42;;;;;;;;;;;13.50;99.90;;;;;;5122155;27;19915;-71
2022/09/24 03:49:08;;;;;;;;;;;13.50;99.90;;;;;;5131994;27;19949;-71
2022/09/24 03:51:33;;;;;;;;;;;13.50;99.90;;;;;;5110738;28;19967;-76
2022/09/24 03:53:59;;;;;;;;;;;13.50;99.90;;;;;;5142236;27;20306;-71
2022/09/24 03:56:24;;;;;;;;;;;13.60;99.90;;;;;;5114756;28;20218;-71
2022/09/24 03:58:50;;;;;;;;;;;13.50;99.90;;;;;;5105615;28;19922;-71
2022/09/24 04:01:19;;;;;;;;;;;13.50;99.90;;;;;;5111047;28;19916;-72
2022/09/24 04:03:45;;;;;;;;;;;13.50;99.90;;;;;;5102942;28;19919;-72
2022/09/24 04:06:11;;;;;;;;;;;13.50;99.90;;;;;;5104125;28;19908;-71
2022/09/24 04:08:37;;;;;;;;;;;13.40;99.90;;;;;;5109537;28;20357;-74
2022/09/24 04:11:02;;;;;;;;;;;13.40;99.90;;;;;;5114230;28;19965;-72
2022/09/24 04:13:28;;;;;;;;;;;13.40;99.90;;;;;;5099382;28;19919;-71
2022/09/24 04:15:53;;;;;;;;;;;13.40;99.90;;;;;;5147667;27;20003;-71
2022/09/24 04:18:19;;;;;;;;;;;13.40;99.90;;;;;;5113095;28;19922;-72
2022/09/24 04:20:45;;;;;;;;;;;13.50;99.90;;;;;;5112340;28;20651;-71
2022/09/24 04:23:11;;;;;;;;;;;13.50;99.90;;;;;;5147516;27;19916;-71
2022/09/24 04:25:39;;;;;;;;;;;13.40;99.90;;;;;;5112903;28;20408;-71
2022/09/24 04:28:05;;;;;;;;;;;13.40;99.90;;;;;;5098785;28;19922;-71
2022/09/24 04:30:32;;;;;;;;;;;13.40;99.90;;;;;;5105846;28;19916;-71
2022/09/24 04:32:59;;;;;;;;;;;13.40;99.90;;;;;;5106860;28;20299;-71
2022/09/24 04:35:25;;;;;;;;;;;13.50;99.90;;;;;;5099955;28;19943;-72
2022/09/24 04:37:51;;;;;;;;;;;13.40;99.90;;;;;;5103033;28;19930;-70
2022/09/24 04:40:17;;;;;;;;;;;13.40;99.90;;;;;;5104320;28;20006;-71
2022/09/24 04:42:46;;;;;;;;;;;13.40;99.90;;;;;;5101426;28;19912;-76
2022/09/24 04:45:12;;;;;;;;;;;13.40;99.90;;;;;;5108411;28;19913;-71
2022/09/24 04:47:39;;;;;;;;;;;13.40;99.90;;;;;;5114063;28;19919;-70
2022/09/24 04:50:06;;;;;;;;;;;13.40;99.90;;;;;;5106969;28;19927;-71
2022/09/24 04:52:32;;;;;;;;;;;13.40;99.90;;;;;;5134439;27;19995;-71
2022/09/24 04:54:58;;;;;;;;;;;13.40;99.90;;;;;;5121802;27;20329;-71
2022/09/24 04:57:24;;;;;;;;;;;13.30;99.90;;;;;;5112168;28;19999;-70
2022/09/24 04:59:50;;;;;;;;;;;13.30;99.90;;;;;;5128772;27;19911;-71
2022/09/24 05:02:16;;;;;;;;;;;13.30;99.90;;;;;;5132467;27;19919;-74
2022/09/24 05:04:45;;;;;;;;;;;13.30;99.90;;;;;;5128472;27;19911;-75
2022/09/24 05:07:10;;;;;;;;;;;13.30;99.90;;;;;;5110096;27;19920;-75
2022/09/24 05:09:36;;;;;;;;;;;13.30;99.90;;;;;;5126064;27;20006;-75
2022/09/24 05:12:02;;;;;;;;;;;13.20;99.90;;;;;;5120489;27;20290;-74
2022/09/24 05:14:28;;;;;;;;;;;13.30;99.90;;;;;;5130511;27;19908;-74
2022/09/24 05:16:53;;;;;;;;;;;13.30;99.90;;;;;;5107276;27;19964;-74
2022/09/24 05:19:19;;;;;;;;;;;13.30;99.90;;;;;;5122503;27;19915;-75
2022/09/24 05:21:45;;;;;;;;;;;13.30;99.90;;;;;;5129139;27;20006;-75
2022/09/24 05:24:10;;;;;;;;;;;13.30;99.90;;;;;;5104153;27;19916;-74
2022/09/24 05:29:20;;;;;;;;;;;13.30;99.90;;;;;;5122715;27;20281;-76
2022/09/24 05:31:46;;;;;;;;;;;13.30;99.90;;;;;;5123774;27;19950;-74
2022/09/24 05:34:13;;;;;;;;;;;13.40;99.90;;;;;;5131504;27;19943;-74
2022/09/24 05:36:39;;;;;;;;;;;13.30;99.90;;;;;;5112595;27;19911;-74
2022/09/24 05:39:05;;;;;;;;;;;13.30;99.90;;;;;;5129294;27;19918;-73
2022/09/24 05:41:30;;;;;;;;;;;13.30;99.90;;;;;;5137631;27;19916;-74
2022/09/24 05:43:58;;;;;;;;;;;13.20;99.90;;;;;;5137563;27;19912;-74
2022/09/24 05:46:23;;;;;;;;;;;13.20;99.90;;;;;;5113570;28;19916;-74
2022/09/24 05:48:49;;;;;;;;;;;13.20;99.90;;;;;;5090924;27;19929;-74
2022/09/24 05:51:14;;;;;;;;;;;13.30;99.90;;;;;;5126606;27;19971;-74
2022/09/24 05:53:40;;;;;;;;;;;13.30;99.90;;;;;;5100009;27;20341;-74
2022/09/24 05:56:06;;;;;;;;;;;13.20;99.90;;;;;;5098872;28;19923;-74
2022/09/24 05:58:31;;;;;;;;;;;13.30;99.90;;;;;;5120234;27;19919;-74
2022/09/24 06:01:03;;;;;;;;;;;13.20;99.90;;;;;;5122418;27;19916;-74
2022/09/24 06:03:30;;;;;;;;;;;13.20;99.90;;;;;;5101064;27;20099;-74
2022/09/24 06:05:58;;;;;;;;;;;13.10;99.90;;;;;;5121365;27;19939;-74
2022/09/24 06:08:23;;;;;;;;;;;13.20;99.90;;;;;;5110071;27;19915;-73
2022/09/24 06:10:49;;;;;;;;;;;13.20;99.90;;;;;;5106409;28;19912;-74
2022/09/24 06:13:19;;;;;;;;;;;13.20;99.90;;;;;;5115798;28;19916;-73
2022/09/24 06:15:45;;;;;;;;;;;13.10;99.90;;;;;;5116364;28;19945;-74
2022/09/24 06:18:11;;;;;;;;;;;13.20;99.90;;;;;;5107361;27;19999;-74
2022/09/24 06:20:36;;;;;;;;;;;13.20;99.90;;;;;;5122112;27;19919;-74
2022/09/24 06:23:02;;;;;;;;;;;13.30;99.90;;;;;;5110935;27;19911;-74
2022/09/24 06:25:28;;;;;;;;;;;13.30;99.90;;;;;;5117825;27;19922;-74
2022/09/24 06:27:59;;;;;;;;;;;13.30;99.90;;;;;;5099497;27;20298;-75
2022/09/24 06:30:28;;;;;;;;;;;13.30;99.90;;;;;;5115073;27;19911;-74
2022/09/24 06:32:54;;;;;;;;;;;13.30;99.90;;;;;;5120392;27;20006;-74
2022/09/24 06:35:19;;;;;;;;;;;13.50;99.90;;;;;;5116719;27;20267;-74
2022/09/24 06:37:47;;;;;;;;;;;13.40;99.90;;;;;;5119766;27;19912;-73
2022/09/24 06:40:12;;;;;;;;;;;13.40;99.90;;;;;;5104575;27;19930;-75
2022/09/24 06:42:38;;;;;;;;;;;13.30;99.90;;;;;;5127379;27;19915;-75
2022/09/24 06:45:04;;;;;;;;;;;13.50;99.90;;;;;;5117931;27;19912;-74
2022/09/24 06:47:29;;;;;;;;;;;13.50;99.90;;;;;;5118177;27;19911;-75
2022/09/24 06:49:55;;;;;;;;;;;13.50;99.90;;;;;;5115743;28;19911;-74
2022/09/24 06:52:22;;;;;;;;;;;13.50;99.90;;;;;;5101721;28;19950;-75
2022/09/24 06:54:47;;;;;;;;;;;13.40;99.90;;;;;;5125590;27;19960;-75
2022/09/24 06:57:15;;;;;;;;;;;13.50;99.90;;;;;;5140850;27;19937;-75
2022/09/24 06:59:40;;;;;;;;;;;13.50;99.90;;;;;;5122122;27;19911;-75
2022/09/24 07:02:08;;;;;;;;;;;13.40;99.90;;;;;;5111097;27;19960;-75
2022/09/24 07:04:34;;;;;;;;;;;13.40;99.90;;;;;;5114981;27;19911;-75
2022/09/24 07:09:44;;;;;;;;;;;13.50;99.90;;;;;;5128306;27;19914;-72
2022/09/24 07:12:09;;;;;;;;;;;13.40;99.90;;;;;;5091433;27;19911;-74
2022/09/24 07:14:35;;;;;;;;;;;13.50;99.90;;;;;;5082521;27;20019;-73
2022/09/24 07:17:00;;;;;;;;;;;13.50;99.90;;;;;;5106469;27;19922;-72
2022/09/24 07:19:26;;;;;;;;;;;13.50;99.90;;;;;;5129332;27;19912;-73
2022/09/24 07:21:51;;;;;;;;;;;13.40;99.90;;;;;;5124340;27;19915;-72
2022/09/24 07:24:17;;;;;;;;;;;13.40;99.90;;;;;;5115766;28;20305;-73
2022/09/24 07:26:43;;;;;;;;;;;13.50;99.90;;;;;;5123430;27;19930;-74
2022/09/24 07:29:08;;;;;;;;;;;13.60;99.90;;;;;;5136252;27;19911;-75
2022/09/24 07:31:35;;;;;;;;;;;13.60;99.90;;;;;;5124821;27;19941;-75
2022/09/24 07:34:01;;;;;;;;;;;13.70;99.90;;;;;;5113612;27;19911;-75
2022/09/24 07:36:29;;;;;;;;;;;13.60;99.90;;;;;;5128603;27;19995;-78
2022/09/24 07:38:55;;;;;;;;;;;13.70;99.90;;;;;;5103518;27;20359;-80
2022/09/24 07:41:20;;;;;;;;;;;13.60;99.90;;;;;;5120484;27;19912;-75
2022/09/24 07:43:46;;;;;;;;;;;13.70;99.90;;;;;;5130600;27;20318;-76
2022/09/24 07:46:12;;;;;;;;;;;13.60;99.90;;;;;;5090483;28;20302;-79
2022/09/24 07:48:38;;;;;;;;;;;13.70;99.90;;;;;;5096735;28;19911;-74
2022/09/24 07:51:04;;;;;;;;;;;13.70;99.90;;;;;;5115422;28;19954;-77
2022/09/24 07:53:30;;;;;;;;;;;13.70;99.90;;;;;;5108240;28;20135;-74
2022/09/24 07:55:58;;;;;;;;;;;13.70;99.90;;;;;;5097327;28;20402;-76
2022/09/24 07:58:24;;;;;;;;;;;13.70;99.90;;;;;;5097260;28;20247;-75
2022/09/24 08:00:49;;;;;;;;;;;13.70;99.90;;;;;;5108073;28;19908;-76
2022/09/24 08:03:15;;;;;;;;;;;13.60;99.90;;;;;;5097438;28;19911;-74
2022/09/24 08:05:41;;;;;;;;;;;13.70;99.90;;;;;;5107887;28;19916;-74
2022/09/24 08:08:07;;;;;;;;;;;13.70;99.90;;;;;;5097209;28;19916;-75
2022/09/24 08:10:32;;;;;;;;;;;13.70;99.90;;;;;;5099235;28;19911;-75
2022/09/24 08:13:01;;;;;;;;;;;13.70;99.90;;;;;;5115090;28;19911;-71
2022/09/24 08:15:26;;;;;;;;;;;13.70;99.90;;;;;;5114821;28;20313;-77
2022/09/24 08:17:52;;;;;;;;;;;13.70;99.90;;;;;;5115116;28;19912;-74
2022/09/24 08:20:17;;;;;;;;;;;13.60;99.90;;;;;;5108164;28;19908;-74
2022/09/24 08:22:43;;;;;;;;;;;13.60;99.90;;;;;;5116472;28;19914;-78
2022/09/24 08:25:08;;;;;;;;;;;13.60;99.90;;;;;;5124041;28;20226;-74
2022/09/24 08:27:36;;;;;;;;;;;13.60;99.90;;;;;;5131432;28;19924;-74
2022/09/24 08:30:04;;;;;;;;;;;13.60;99.90;;;;;;5121036;28;20126;-73
2022/09/24 08:32:30;;;;;;;;;;;13.60;99.90;;;;;;5087553;28;19912;-75
2022/09/24 08:34:55;;;;;;;;;;;13.60;99.90;;;;;;5110952;28;20263;-78
2022/09/24 08:37:21;;;;;;;;;;;13.60;99.90;;;;;;5111531;27;20318;-74
2022/09/24 08:39:47;;;;;;;;;;;13.70;99.90;;;;;;5139077;27;19958;-76
2022/09/24 08:42:33;;;;;;;;;;;13.70;99.90;;;;;;5131111;27;20355;-74
2022/09/24 08:47:59;;;;;;;;;;;13.70;99.90;;;;;;5127264;27;19938;-77
2022/09/24 08:50:26;;;;;;;;;;;13.70;99.90;;;;;;5138234;27;20008;-76
2022/09/24 08:52:55;;;;;;;;;;;13.70;99.90;;;;;;5108844;28;19916;-79
2022/09/24 08:55:41;;;;;;;;;;;13.70;99.90;;;;;;5136964;27;19991;-75
2022/09/24 08:58:09;;;;;;;;;;;13.70;99.90;;;;;;5120450;27;19908;-76
2022/09/24 09:00:38;;;;;;;;;;;13.70;99.90;;;;;;5124048;27;19908;-75
2022/09/24 09:03:07;;;;;;;;;;;13.70;99.90;;;;;;5120888;27;19911;-76
2022/09/24 09:05:52;;;;;;;;;;;13.80;99.90;;;;;;5120014;27;19908;-76
2022/09/24 09:08:20;;;;;;;;;;;13.80;99.90;;;;;;5139031;27;19912;-74
2022/09/24 09:10:57;;;;;;;;;;;13.80;99.90;;;;;;5138276;27;19930;-75
2022/09/24 09:13:25;;;;;;;;;;;13.80;99.90;;;;;;5138871;27;19933;-76
2022/09/24 09:15:53;;;;;;;;;;;13.80;99.90;;;;;;5123670;27;20011;-75
2022/09/24 09:18:31;;;;;;;;;;;13.80;99.90;;;;;;5120485;27;19943;-75
2022/09/24 09:21:09;;;;;;;;;;;13.80;99.90;;;;;;5119462;27;19943;-74
2022/09/24 09:23:38;;;;;;;;;;;13.90;99.90;;;;;;5138990;27;19908;-74
2022/09/24 09:26:05;;;;;;;;;;;13.90;99.90;;;;;;5137705;27;19908;-74
2022/09/24 09:28:31;;;;;;;;;;;13.90;99.90;;;;;;5138520;27;19970;-76
2022/09/24 09:31:13;;;;;;;;;;;14.00;99.90;;;;;;5106142;28;20007;-76
2022/09/24 09:33:41;;;;;;;;;;;14.00;99.90;;;;;;5107852;27;20306;-77
2022/09/24 09:36:10;;;;;;;;;;;14.10;99.90;;;;;;5123632;27;19908;-74
2022/09/24 09:38:50;;;;;;;;;;;14.10;99.90;;;;;;5138746;27;19939;-74
2022/09/24 09:41:27;;;;;;;;;;;14.10;99.90;;;;;;5137357;27;20309;-75
2022/09/24 09:44:04;;;;;;;;;;;14.10;99.90;;;;;;5125292;27;19960;-74
2022/09/24 09:46:32;;;;;;;;;;;14.10;99.90;;;;;;5133450;27;20379;-74
2022/09/24 09:49:01;;;;;;;;;;;14.10;99.90;;;;;;5120003;27;19915;-75
2022/09/24 09:51:29;;;;;;;;;;;14.20;99.90;;;;;;5125860;27;19985;-74
2022/09/24 09:53:58;;;;;;;;;;;14.20;99.90;;;;;;5126562;27;19920;-74
2022/09/24 09:56:28;;;;;;;;;;;14.20;99.90;;;;;;5131231;27;19998;-73
2022/09/24 09:59:01;;;;;;;;;;;14.30;99.90;;;;;;5129550;27;19920;-75
2022/09/24 10:01:31;;;;;;;;;;;14.30;99.90;;;;;;5134135;27;19943;-73
2022/09/24 10:04:02;;;;;;;;;;;14.30;99.90;;;;;;5133022;27;20357;-73
2022/09/24 10:06:30;;;;;;;;;;;14.30;99.90;;;;;;5132454;27;19964;-74
2022/09/24 10:09:12;;;;;;;;;;;14.40;99.90;;;;;;5127271;27;19964;-78
2022/09/24 10:11:38;;;;;;;;;;;14.40;99.90;;;;;;5122675;27;20287;-83
2022/09/24 10:14:05;;;;;;;;;;;14.40;99.90;;;;;;5130984;27;19918;-74
2022/09/24 10:16:36;;;;;;;;;;;14.40;99.90;;;;;;5134070;27;19918;-73
2022/09/24 10:19:01;;;;;;;;;;;14.40;99.90;;;;;;5135250;27;19907;-74
2022/09/24 10:21:35;;;;;;;;;;;14.40;99.90;;;;;;5118292;27;19917;-74
2022/09/24 10:24:02;;;;;;;;;;;14.40;99.90;;;;;;5114130;27;20313;-74
2022/09/24 10:26:41;;;;;;;;;;;14.40;99.90;;;;;;5112355;27;19911;-76
2022/09/24 10:32:00;;;;;;;;;;;14.40;99.90;;;;;;5135595;27;20418;-75
2022/09/24 10:34:27;;;;;;;;;;;14.20;99.90;;;;;;5125922;27;20002;-74
2022/09/24 10:36:57;;;;;;;;;;;14.20;99.90;;;;;;5115420;27;19915;-75
2022/09/24 10:39:22;;;;;;;;;;;14.20;99.90;;;;;;5133882;27;19998;-76
2022/09/24 10:41:49;;;;;;;;;;;14.20;99.90;;;;;;5099953;27;20018;-75
2022/09/24 10:44:15;;;;;;;;;;;14.20;99.90;;;;;;5129728;27;19923;-74
2022/09/24 10:46:53;;;;;;;;;;;14.10;99.90;;;;;;5132281;27;20226;-75
2022/09/24 10:49:18;;;;;;;;;;;14.10;99.90;;;;;;5132832;27;19935;-74
2022/09/24 10:51:59;;;;;;;;;;;14.10;99.90;;;;;;5128219;27;20050;-75
2022/09/24 10:54:25;;;;;;;;;;;14.10;99.90;;;;;;5107854;27;20365;-75
2022/09/24 10:56:52;;;;;;;;;;;14.10;99.90;;;;;;5106177;27;20011;-75
2022/09/24 10:59:28;;;;;;;;;;;14.10;99.90;;;;;;5122431;27;20002;-74
2022/09/24 11:02:20;;;;;;;;;;;14.10;99.90;;;;;;5125250;27;19911;-75
2022/09/24 11:04:50;;;;;;;;;;;14.10;99.90;;;;;;5108197;27;19915;-75
2022/09/24 11:07:16;;;;;;;;;;;14.10;99.90;;;;;;5127461;27;19916;-74
2022/09/24 11:09:42;;;;;;;;;;;14.10;99.90;;;;;;5125643;27;19926;-73
2022/09/24 11:12:14;;;;;;;;;;;14.20;99.90;;;;;;5106748;27;19990;-74
2022/09/24 11:14:39;;;;;;;;;;;14.10;99.90;;;;;;5105546;27;19959;-74
2022/09/24 11:17:20;;;;;;;;;;;14.20;99.90;;;;;;5120127;27;19974;-73
2022/09/24 11:19:51;;;;;;;;;;;14.20;99.90;;;;;;5122247;27;19923;-74
2022/09/24 11:22:26;;;;;;;;;;;14.20;99.90;;;;;;5107908;27;19961;-73
2022/09/24 11:25:18;;;;;;;;;;;14.30;99.90;;;;;;5133568;27;19908;-74
2022/09/24 11:27:44;;;;;;;;;;;14.30;99.90;;;;;;5112161;27;19911;-73
2022/09/24 11:30:28;;;;;;;;;;;14.20;99.90;;;;;;5099945;27;21065;-75
2022/09/24 11:33:03;;;;;;;;;;;14.20;99.90;;;;;;5104417;27;20320;-75
2022/09/24 11:35:28;;;;;;;;;;;14.20;99.90;;;;;;5099161;28;19908;-75
2022/09/24 11:38:12;;;;;;;;;;;14.30;99.90;;;;;;5100463;27;19919;-75
2022/09/24 11:40:57;;;;;;;;;;;14.30;99.90;;;;;;5120010;27;19919;-75
2022/09/24 11:43:32;;;;;;;;;;;14.40;99.90;;;;;;5114923;27;19912;-75
2022/09/24 11:46:17;;;;;;;;;;;14.40;99.90;;;;;;5114328;27;20309;-72
2022/09/24 11:48:54;;;;;;;;;;;14.50;99.90;;;;;;5128708;27;19922;-75
2022/09/24 11:51:25;;;;;;;;;;;14.50;99.90;;;;;;5106969;27;20108;-74
2022/09/24 11:54:09;;;;;;;;;;;14.50;99.90;;;;;;5128028;27;19919;-73
2022/09/24 11:56:39;;;;;;;;;;;14.60;99.90;;;;;;5132752;27;19964;-77
2022/09/24 11:59:08;;;;;;;;;;;14.60;99.90;;;;;;5132510;28;19914;-71
2022/09/24 12:01:35;;;;;;;;;;;14.60;99.90;;;;;;5125101;28;19912;-74
2022/09/24 12:04:20;;;;;;;;;;;14.70;99.90;;;;;;5117101;28;20358;-71
2022/09/24 12:06:51;;;;;;;;;;;14.70;99.90;;;;;;5114824;28;20012;-71
2022/09/24 12:09:16;;;;;;;;;;;14.70;99.90;;;;;;5097840;28;19962;-70
2022/09/24 12:12:02;;;;;;;;;;;14.60;99.90;;;;;;5113166;27;19943;-72
2022/09/24 12:14:43;;;;;;;;;;;14.70;99.90;;;;;;5131928;27;19954;-73
2022/09/24 12:17:14;;;;;;;;;;;14.70;99.90;;;;;;5122546;27;20232;-73
2022/09/24 12:19:54;;;;;;;;;;;14.70;99.90;;;;;;5106222;27;19959;-73
2022/09/24 12:22:21;;;;;;;;;;;14.70;99.90;;;;;;5099720;28;19912;-76
2022/09/24 12:24:50;;;;;;;;;;;14.70;99.90;;;;;;5119852;27;20306;-73
2022/09/24 12:27:17;;;;;;;;;;;14.80;99.90;;;;;;5133689;27;19920;-73
2022/09/24 12:32:56;;;;;;;;;;;14.90;99.90;;;;;;5137180;27;19995;-76
2022/09/24 12:35:34;;;;;;;;;;;14.90;99.90;;;;;;5113922;27;20710;-71
2022/09/24 12:38:00;;;;;;;;;;;14.90;99.90;;;;;;5130336;27;19912;-70
2022/09/24 12:40:44;;;;;;;;;;;15.00;99.90;;;;;;5124958;27;19980;-74
2022/09/24 12:43:25;;;;;;;;;;;15.10;99.90;;;;;;5109486;27;19983;-72
2022/09/24 12:45:59;;;;;;;;;;;15.10;99.90;;;;;;5141666;27;19919;-74
2022/09/24 12:48:25;;;;;;;;;;;15.10;99.90;;;;;;5101614;28;19951;-73
2022/09/24 12:50:58;;;;;;;;;;;15.20;99.90;;;;;;5116843;27;20322;-75
2022/09/24 12:53:26;;;;;;;;;;;15.20;99.90;;;;;;5125984;27;19915;-71
2022/09/24 12:55:57;;;;;;;;;;;15.20;99.90;;;;;;5099544;28;20187;-74
2022/09/24 12:58:28;;;;;;;;;;;15.20;99.90;;;;;;5120109;27;19998;-73
2022/09/24 13:01:10;;;;;;;;;;;15.20;99.90;;;;;;5125089;27;19916;-74
2022/09/24 13:03:39;;;;;;;;;;;15.30;99.90;;;;;;5125033;27;19912;-72
2022/09/24 13:06:37;;;;;;;;;;;15.20;99.90;;;;;;5108377;27;19912;-72
2022/09/24 13:09:21;;;;;;;;;;;15.20;99.90;;;;;;5051558;28;20036;-75
2022/09/24 13:11:47;;;;;;;;;;;15.30;99.90;;;;;;5050305;28;19913;-75
2022/09/24 13:14:12;;;;;;;;;;;15.30;99.90;;;;;;5051715;28;19908;-74
2022/09/24 13:16:43;;;;;;;;;;;15.30;99.90;;;;;;5053200;28;19962;-73
2022/09/24 13:19:24;;;;;;;;;;;15.30;99.90;;;;;;5047115;28;19995;-72
2022/09/24 13:21:57;;;;;;;;;;;15.30;99.90;;;;;;5029039;28;19913;-74
2022/09/24 13:24:27;;;;;;;;;;;15.40;99.90;;;;;;5026933;28;19909;-74
2022/09/24 13:26:52;;;;;;;;;;;15.30;99.90;;;;;;5053678;28;19912;-72
2022/09/24 13:29:24;;;;;;;;;;;15.30;99.90;;;;;;5053583;28;20027;-73
2022/09/24 13:31:56;;;;;;;;;;;15.30;99.90;;;;;;5034788;28;19955;-71
2022/09/24 13:34:24;;;;;;;;;;;15.20;99.90;;;;;;5049526;28;20217;-77
2022/09/24 13:36:59;;;;;;;;;;;15.20;99.90;;;;;;5039855;28;19917;-75
2022/09/24 13:39:30;;;;;;;;;;;15.20;99.90;;;;;;5024940;28;19920;-76
2022/09/24 13:42:02;;;;;;;;;;;15.20;99.90;;;;;;5039172;28;20062;-77
2022/09/24 13:44:34;;;;;;;;;;;15.30;99.90;;;;;;5081343;28;19959;-74
2022/09/24 13:47:02;;;;;;;;;;;15.30;99.90;;;;;;5122922;27;20019;-73
2022/09/24 13:49:29;;;;;;;;;;;15.30;99.90;;;;;;5115523;28;19911;-71
2022/09/24 13:51:58;;;;;;;;;;;15.30;99.90;;;;;;5085903;27;20500;-72
2022/09/24 13:54:47;;;;;;;;;;;15.30;99.90;;;;;;5096409;28;20447;-73
2022/09/24 13:57:26;;;;;;;;;;;15.30;99.90;;;;;;5096533;28;19908;-76
2022/09/24 14:00:26;;;;;;;;;;;15.20;99.90;;;;;;5109667;27;19961;-71
2022/09/24 14:03:04;;;;;;;;;;;15.30;99.90;;;;;;5069338;28;19916;-72
2022/09/24 14:05:33;;;;;;;;;;;15.30;99.90;;;;;;5068138;28;19920;-72
2022/09/24 14:08:02;;;;;;;;;;;15.30;99.90;;;;;;5071867;28;19920;-74
2022/09/24 14:10:28;;;;;;;;;;;15.30;99.90;;;;;;5051502;28;19913;-71
2022/09/24 14:13:23;;;;;;;;;;;15.40;99.90;;;;;;5053311;28;19963;-72
2022/09/24 14:15:51;;;;;;;;;;;15.30;99.90;;;;;;5064219;28;20382;-72
2022/09/24 14:18:16;;;;;;;;;;;15.40;99.90;;;;;;5072890;28;19948;-74
2022/09/24 14:20:43;;;;;;;;;;;15.40;99.90;;;;;;5067645;28;20097;-76
2022/09/24 14:23:13;;;;;;;;;;;15.50;99.90;;;;;;5054353;28;19919;-74
2022/09/24 14:25:39;;;;;;;;;;;15.40;99.90;;;;;;5049218;28;20278;-73
2022/09/24 14:28:05;;;;;;;;;;;15.50;99.90;;;;;;5066413;28;19913;-73
2022/09/24 14:30:32;;;;;;;;;;;15.50;99.90;;;;;;5056617;28;19961;-74
2022/09/24 14:33:03;;;;;;;;;;;15.50;99.90;;;;;;5059108;28;19935;-71
2022/09/24 14:35:32;;;;;;;;;;;15.60;99.90;;;;;;5062900;28;19972;-71
2022/09/24 14:38:05;;;;;;;;;;;15.60;99.90;;;;;;5078004;28;19919;-74
2022/09/24 14:40:38;;;;;;;;;;;15.70;99.90;;;;;;5106958;27;20426;-74
2022/09/24 14:43:04;;;;;;;;;;;15.70;99.90;;;;;;5102301;27;19932;-73
2022/09/24 14:45:35;;;;;;;;;;;15.70;99.90;;;;;;5105269;28;19935;-72
2022/09/24 14:48:00;;;;;;;;;;;15.60;99.90;;;;;;5111747;27;19927;-75